Date,TemperatureHighF,TemperatureAvgF,TemperatureLowF,DewpointHighF,DewpointAvgF,DewpointLowF,HumidityHigh,HumidityAvg,HumidityLow,PressureMaxIn,PressureMinIn,WindSpeedMaxMPH,WindSpeedAvgMPH,GustSpeedMaxMPH,PrecipitationSumIn
2012-1-1,41.0,29.9,23.0,16.0,11.2,4.0,66,46,30,0.00,40.00,9,2,12,0.00
2012-1-2,59.0,37.1,20.0,21.0,15.8,12.0,75,47,16,0.00,40.00,8,2,11,0.00
2012-1-3,60.0,45.3,37.0,20.0,14.6,8.0,45,30,12,0.00,40.00,11,4,16,0.00
2012-1-4,66.0,44.3,27.0,21.0,14.3,9.0,63,34,10,0.00,40.00,10,3,12,0.00
2012-1-5,73.0,45.9,39.0,24.0,7.7,-99.9,48,27,12,0.00,40.00,8,-96,10,0.00
2012-1-6,53.0,29.2,40.0,23.0,21.4,16.0,51,40,21,0.00,40.00,11,4,22,0.00
2012-1-7,-200.0,0.0,200.0,21.0,-36.3,-99.9,0,0,100,0.00,40.00,4,-472,0,0.00
2012-1-8,-200.0,0.0,200.0,-99.9,-99.9,-99.9,0,0,100,0.00,40.00,0,-999,0,0.00
2012-1-9,-200.0,0.0,200.0,-99.9,-99.9,-99.9,0,0,100,0.00,40.00,0,-999,0,0.00
2012-1-10,57.0,11.6,35.0,25.0,-64.8,-99.9,60,10,22,0.00,40.00,6,-742,9,0.00
2012-1-11,37.0,23.0,10.0,25.0,15.5,4.0,89,75,43,0.00,40.00,16,5,22,0.00
2012-1-12,47.0,27.9,7.0,9.0,2.2,-99.9,80,38,13,0.00,40.00,8,-3,14,0.12
2012-1-13,50.0,38.8,23.0,10.0,4.5,-2.0,54,24,12,0.00,40.00,14,6,21,0.04
2012-1-14,62.0,43.1,27.0,17.0,10.9,6.0,46,27,12,0.00,40.00,35,3,35,0.00
2012-1-15,60.0,43.2,30.0,17.0,13.6,10.0,49,31,14,0.00,40.00,5,2,15,0.00
2012-1-16,44.0,30.4,19.0,21.0,14.9,-99.9,86,58,20,0.00,40.00,9,-10,13,0.00
2012-1-17,35.0,22.7,14.0,13.0,7.4,0.0,84,56,25,0.00,40.00,9,4,38,0.00
2012-1-18,54.0,38.9,20.0,18.0,10.6,0.0,67,31,20,0.00,40.00,25,5,38,0.00
2012-1-19,67.0,57.8,50.0,27.0,22.6,17.0,37,25,18,0.00,40.00,24,9,38,0.00
2012-1-20,65.0,51.2,38.0,25.0,20.2,17.0,47,29,19,0.00,40.00,20,6,37,0.00
2012-1-21,69.0,47.8,35.0,30.0,21.5,14.0,51,36,15,0.00,40.00,13,4,20,0.00
2012-1-22,49.0,35.1,34.0,31.0,9.7,-29.0,57,27,13,0.00,40.00,20,8,35,0.00
2012-1-23,53.0,40.7,28.0,18.0,10.6,2.0,50,29,15,0.00,40.00,13,4,19,0.00
2012-1-24,37.0,32.2,28.0,30.0,14.1,-99.9,85,58,41,0.00,40.00,8,-61,13,0.00
2012-1-25,53.0,29.8,24.0,22.0,1.8,-99.9,82,49,21,0.00,40.00,16,-131,27,0.00
2012-1-26,64.0,44.6,42.0,28.0,2.1,-99.9,45,21,11,0.00,40.00,14,-106,23,0.00
2012-1-27,48.0,29.9,24.0,27.0,3.0,-99.9,90,46,25,0.00,40.00,34,-113,34,0.04
2012-1-28,49.0,30.1,21.0,12.0,-4.9,-99.9,69,32,10,0.00,40.00,51,-93,51,0.04
2012-1-29,57.0,43.8,31.0,19.0,3.7,-99.9,40,21,17,0.00,40.00,17,-78,26,0.00
2012-1-30,65.0,44.2,34.0,18.0,3.2,-99.9,50,22,12,0.00,40.00,12,-87,16,0.00
2012-1-31,57.0,40.7,35.0,16.0,2.0,-99.9,42,24,14,0.00,40.00,10,-94,14,0.00
2012-2-1,56.0,39.1,29.0,17.0,4.8,-99.9,60,30,11,0.00,40.00,7,-67,13,0.00
2012-2-2,49.0,33.3,31.0,31.0,2.2,-99.9,95,39,20,0.00,40.00,8,-116,16,0.00
2012-2-3,31.0,26.0,27.0,29.0,15.6,-99.9,95,84,82,0.00,40.00,159,-78,159,0.04
2012-2-4,42.0,26.1,20.0,25.0,10.4,-99.9,92,68,40,0.00,40.00,6,-83,10,0.43
2012-2-5,43.0,20.9,12.0,19.0,-2.4,-99.9,85,57,30,0.00,40.00,6,-137,9,0.04
2012-2-6,41.0,26.9,15.0,24.0,14.1,10.0,89,63,31,0.00,40.00,5,2,11,0.00
2012-2-7,30.0,24.3,21.0,22.0,16.4,-99.9,89,75,57,0.00,40.00,6,-4,10,0.12
2012-2-8,40.0,25.2,13.0,19.0,14.3,7.0,83,66,36,0.00,40.00,6,2,11,0.04
2012-2-9,51.0,34.3,26.0,23.0,18.8,15.0,74,55,30,0.00,40.00,6,2,12,0.00
2012-2-10,48.0,28.1,20.0,21.0,16.2,10.0,89,64,23,0.00,40.00,9,4,13,0.00
2012-2-11,25.0,16.7,10.0,16.0,9.0,5.0,88,73,52,0.00,40.00,6,2,13,0.00
2012-2-12,32.0,20.8,12.0,17.0,11.7,7.0,83,70,46,0.00,40.00,12,1,15,0.00
2012-2-13,47.0,34.2,24.0,26.0,21.5,17.0,86,63,36,0.00,40.00,7,2,10,0.00
2012-2-14,53.0,35.0,22.0,25.0,20.1,15.0,83,58,23,0.00,40.00,9,2,13,0.00
2012-2-15,42.0,31.1,26.0,25.0,21.5,20.0,84,70,46,0.00,40.00,7,2,11,0.00
2012-2-16,52.0,34.9,21.0,25.0,17.8,13.0,81,55,20,0.00,40.00,10,3,12,0.00
2012-2-17,48.0,33.7,25.0,20.0,13.4,-99.9,76,46,21,0.00,40.00,11,-4,16,0.00
2012-2-18,50.0,33.4,20.0,25.0,18.7,10.0,88,60,19,0.00,40.00,6,2,11,0.00
2012-2-19,51.0,35.5,27.0,25.0,21.4,16.0,83,60,25,0.00,40.00,9,2,13,0.00
2012-2-20,43.0,35.3,29.0,27.0,10.6,0.0,88,40,14,0.00,40.00,16,6,25,0.00
2012-2-21,54.0,43.2,32.0,17.0,10.6,-99.9,38,25,17,0.00,40.00,19,-2,27,0.00
2012-2-22,64.0,55.6,44.0,22.0,19.5,16.0,37,24,15,0.00,40.00,31,8,51,0.00
2012-2-23,53.0,34.6,27.0,39.0,26.9,22.0,95,79,29,0.00,40.00,16,4,29,0.00
2012-2-24,45.0,34.5,27.0,15.0,3.6,-99.9,53,30,18,0.00,40.00,8,-55,12,0.28
2012-2-25,67.0,42.9,21.0,20.0,10.7,-2.0,78,35,6,0.00,40.00,25,6,42,0.28
2012-2-26,46.0,35.9,27.0,18.0,4.7,-8.0,60,30,8,0.00,40.00,12,4,21,0.00
2012-2-27,52.0,36.7,20.0,23.0,10.9,1.0,64,35,19,0.00,40.00,19,6,29,0.00
2012-2-28,47.0,37.5,28.0,30.0,18.7,-99.9,73,49,25,0.00,40.00,22,-1,23,0.00
2012-2-29,59.0,45.2,32.0,16.0,8.6,2.0,33,21,11,0.00,40.00,20,7,27,0.00
2012-3-1,42.0,31.7,27.0,28.0,8.7,-99.9,87,51,30,0.00,40.00,12,-80,17,0.00
2012-3-2,40.0,23.9,23.0,23.0,-6.4,-99.9,91,47,23,0.00,40.00,19,-172,19,0.00
2012-3-3,49.0,32.2,24.0,15.0,-10.7,-99.9,32,19,17,0.00,40.00,16,-141,28,0.00
2012-3-4,66.0,44.8,41.0,17.0,-1.9,-99.9,37,18,11,0.00,40.00,22,-134,25,0.00
2012-3-5,72.0,47.0,35.0,17.0,-5.0,-99.9,46,16,7,0.00,40.00,22,-129,57,0.08
2012-3-6,73.0,51.5,42.0,12.0,-6.0,-99.9,25,11,4,0.00,40.00,21,-111,29,0.08
2012-3-7,52.0,30.7,28.0,29.0,15.1,-99.9,91,69,16,0.00,40.00,11,-74,19,0.00
2012-3-8,52.0,36.3,27.0,25.0,4.6,-99.9,76,33,13,0.00,40.00,6,-60,11,0.00
2012-3-9,65.0,46.5,30.0,12.0,7.9,4.0,44,22,8,0.00,40.00,11,4,15,0.00
2012-3-10,67.0,52.2,38.0,36.0,16.7,-99.9,61,27,11,0.00,40.00,136,8,136,0.00
2012-3-11,69.0,53.7,40.0,35.0,22.8,3.0,80,39,9,0.00,40.00,11,3,18,0.00
2012-3-12,72.0,59.6,49.0,18.0,12.8,10.0,25,14,9,0.00,40.00,12,5,18,0.00
2012-3-13,79.0,57.8,41.0,16.0,10.8,0.0,36,17,6,0.00,40.00,10,4,18,0.00
2012-3-14,78.0,57.9,39.0,15.0,5.5,-99.9,32,13,4,0.00,40.00,11,-4,20,0.00
2012-3-15,73.0,58.1,45.0,19.0,14.7,6.0,25,17,11,0.00,40.00,9,4,16,0.00
2012-3-16,78.0,60.9,45.0,22.0,19.3,15.0,38,21,9,0.00,40.00,8,3,13,0.00
2012-3-17,76.0,61.1,44.0,21.0,12.3,-3.0,39,16,4,0.00,40.00,25,6,29,0.00
2012-3-18,70.0,58.2,49.0,30.0,14.6,-99.9,42,17,11,0.00,40.00,43,5,43,0.00
2012-3-19,52.0,44.0,35.0,16.0,5.0,-2.0,33,18,9,0.00,40.00,25,6,41,0.00
2012-3-20,55.0,43.0,31.0,17.0,10.2,-99.9,48,26,14,0.00,40.00,10,3,13,0.00
2012-3-21,65.0,48.1,30.0,21.0,15.2,9.0,54,27,14,0.00,40.00,12,3,16,0.00
2012-3-22,71.0,53.4,39.0,29.0,18.9,-99.9,49,28,12,0.00,40.00,9,-11,14,0.00
2012-3-23,80.0,59.6,41.0,25.0,18.6,-99.9,49,24,9,0.00,40.00,10,-10,15,0.00
2012-3-24,74.0,60.8,44.0,35.0,24.3,18.0,43,26,11,0.00,40.00,10,4,17,0.00
2012-3-25,78.0,58.5,45.0,39.0,34.2,30.0,62,43,21,0.00,40.00,7,2,12,0.00
2012-3-26,80.0,63.3,48.0,38.0,20.1,-1.0,64,27,4,0.00,40.00,38,10,53,0.00
2012-3-27,72.0,58.8,44.0,22.0,16.1,11.0,28,18,10,0.00,40.00,15,4,17,0.00
2012-3-28,80.0,61.1,42.0,24.0,19.4,13.0,44,22,8,0.00,40.00,11,3,16,0.00
2012-3-29,75.0,61.9,49.0,24.0,18.7,13.0,29,18,10,0.00,40.00,10,4,19,0.00
2012-3-30,81.0,65.2,49.0,24.0,20.6,18.0,32,18,10,0.00,40.00,9,4,14,0.00
2012-3-31,85.0,67.7,51.0,27.0,23.5,17.0,36,20,10,0.00,40.00,9,4,18,0.00
2012-4-1,85.0,69.5,50.0,21.0,15.8,9.0,30,13,6,0.00,40.00,19,5,20,0.00
2012-4-2,67.0,46.4,35.0,32.0,26.4,11.0,88,49,10,0.00,40.00,13,7,21,0.00
2012-4-3,40.0,35.2,33.0,32.0,29.9,-99.9,93,84,68,0.00,40.00,8,-5,14,0.47
2012-4-4,67.0,49.8,37.0,38.0,32.9,28.0,83,56,28,0.00,40.00,5,1,11,0.04
2012-4-5,73.0,57.1,39.0,43.0,31.3,-99.9,80,45,13,0.00,40.00,24,-2,24,0.00
2012-4-6,77.0,61.4,45.0,43.0,16.0,-99.9,77,28,3,0.00,40.00,28,4,43,0.00
2012-4-7,65.0,50.4,36.0,20.0,12.7,-99.9,39,23,11,0.00,40.00,31,-10,31,0.00
2012-4-8,75.0,57.0,36.0,24.0,15.4,2.0,59,23,6,0.00,40.00,11,4,17,0.00
2012-4-9,72.0,56.5,42.0,37.0,21.4,-99.9,56,26,16,0.00,40.00,7,-5,14,0.00
2012-4-10,82.0,60.9,42.0,41.0,32.8,-99.9,71,40,11,0.00,40.00,13,-5,21,0.00
2012-4-11,75.0,59.2,50.0,50.0,43.2,32.0,82,59,34,0.00,40.00,22,5,39,0.04
2012-4-12,69.0,56.7,47.0,44.0,33.8,-99.9,79,48,16,0.00,40.00,19,-2,39,0.04
2012-4-13,66.0,54.3,42.0,38.0,20.6,7.0,77,32,9,0.00,40.00,14,6,24,0.00
2012-4-14,65.0,50.3,41.0,37.0,27.4,-99.9,87,47,17,0.00,40.00,12,3,20,0.20
2012-4-15,53.0,43.4,35.0,36.0,29.8,-99.9,89,64,29,0.00,40.00,15,-3,23,0.47
2012-4-16,65.0,49.7,35.0,33.0,23.1,15.0,84,41,15,0.00,40.00,10,4,15,0.00
2012-4-17,73.0,57.1,42.0,27.0,22.0,18.0,48,27,12,0.00,40.00,9,4,16,0.00
2012-4-18,75.0,60.1,43.0,31.0,27.5,21.0,58,31,14,0.00,40.00,11,2,16,0.00
2012-4-19,65.0,55.9,48.0,40.0,31.4,-99.9,74,43,19,0.00,40.00,12,-2,19,0.00
2012-4-20,72.0,56.2,42.0,38.0,30.8,-99.9,75,45,19,0.00,40.00,35,-2,35,0.00
2012-4-21,80.0,63.9,49.0,34.0,29.3,-99.9,51,29,14,0.00,40.00,11,-3,18,0.00
2012-4-22,80.0,63.6,47.0,36.0,31.7,25.0,63,34,13,0.00,40.00,3,1,12,0.00
2012-4-23,87.0,68.4,49.0,37.0,29.0,-99.9,61,28,10,0.00,40.00,5,-6,12,0.00
2012-4-24,89.0,72.4,57.0,34.0,28.9,18.0,37,22,7,0.00,40.00,11,3,25,0.00
2012-4-25,85.0,68.9,55.0,37.0,29.9,23.0,42,25,11,0.00,40.00,7,2,16,0.00
2012-4-26,85.0,67.2,55.0,50.0,36.9,-99.9,78,36,15,0.00,40.00,30,-4,37,0.04
2012-4-27,68.0,57.8,46.0,51.0,32.6,-99.9,87,47,17,0.00,40.00,22,-8,35,0.04
2012-4-28,65.0,51.4,38.0,28.0,20.3,-99.9,61,32,10,0.00,40.00,14,6,23,0.00
2012-4-29,68.0,53.9,38.0,34.0,30.4,25.0,78,44,23,0.00,40.00,8,3,14,0.00
2012-4-30,81.0,63.1,43.0,36.0,23.3,14.0,68,29,8,0.00,40.00,9,3,16,0.00
2012-5-1,84.0,68.0,54.0,37.0,25.5,20.0,40,21,10,0.00,40.00,23,4,25,0.00
2012-5-2,82.0,65.5,51.0,38.0,32.9,-99.9,55,33,14,0.00,40.00,14,-3,22,0.00
2012-5-3,84.0,66.5,53.0,40.0,27.1,-99.9,57,29,12,0.00,40.00,21,-44,28,0.00
2012-5-4,93.0,73.3,57.0,38.0,24.8,-99.9,40,19,6,0.00,40.00,9,-11,16,0.00
2012-5-5,87.0,69.5,55.0,47.0,27.7,-99.9,71,26,6,0.00,40.00,11,-4,21,0.31
2012-5-6,64.0,52.4,44.0,41.0,25.6,-99.9,84,41,15,0.00,40.00,6,-18,14,0.35
2012-5-7,52.0,44.5,39.0,42.0,35.6,-99.9,89,77,57,0.00,40.00,7,-19,12,0.47
2012-5-8,70.0,51.7,41.0,42.0,24.6,-99.9,89,47,16,0.00,40.00,4,-56,11,0.04
2012-5-9,80.0,64.4,45.0,34.0,24.3,-99.9,61,28,10,0.00,40.00,8,-12,14,0.00
2012-5-10,87.0,70.2,53.0,33.0,23.6,-99.9,43,19,8,0.00,40.00,15,-10,24,0.00
2012-5-11,64.0,46.4,41.0,37.0,32.5,25.0,86,62,33,0.00,40.00,13,4,24,0.16
2012-5-12,57.0,44.5,39.0,44.0,34.4,-99.9,88,75,50,0.00,40.00,7,-14,12,0.16
2012-5-13,68.0,52.3,43.0,43.0,39.9,35.0,92,67,32,0.00,40.00,2,1,12,0.16
2012-5-14,81.0,62.0,43.0,41.0,25.5,4.0,75,35,5,0.00,40.00,3,1,9,0.00
2012-5-15,85.0,67.6,47.0,34.0,25.1,18.0,56,23,9,0.00,40.00,33,2,33,0.00
2012-5-16,89.0,60.6,55.0,38.0,20.7,-99.9,39,22,10,0.00,40.00,15,-12,28,0.00
2012-5-17,87.0,71.2,57.0,39.0,30.0,-99.9,41,24,11,0.00,40.00,7,-11,15,0.00
2012-5-18,87.0,70.8,57.0,39.0,29.1,-99.9,43,24,9,0.00,40.00,13,-11,21,0.00
2012-5-19,65.0,52.9,48.0,47.0,40.5,-99.9,87,68,36,0.00,40.00,10,-4,16,0.20
2012-5-20,80.0,60.9,43.0,43.0,37.5,28.0,86,50,15,0.00,40.00,9,2,15,0.04
2012-5-21,91.0,70.4,51.0,43.0,32.2,-99.9,68,31,10,0.00,40.00,7,-18,15,0.00
2012-5-22,95.0,75.6,58.0,39.0,27.9,-99.9,48,21,7,0.00,40.00,10,-18,14,0.00
2012-5-23,78.0,61.0,50.0,49.0,36.7,-99.9,90,48,11,0.00,40.00,9,-4,17,0.47
2012-5-24,73.0,58.1,47.0,46.0,29.5,-99.9,90,44,14,0.00,40.00,15,-16,21,0.35
2012-5-25,78.0,62.7,53.0,45.0,39.6,35.0,61,45,28,0.00,40.00,20,6,28,0.00
2012-5-26,91.0,72.9,52.0,52.0,35.6,11.0,87,40,5,0.00,40.00,34,8,35,0.00
2012-5-27,78.0,66.7,56.0,34.0,14.8,-3.0,39,13,5,0.00,40.00,23,6,32,0.00
2012-5-28,82.0,66.2,56.0,28.0,18.4,-99.9,28,15,9,0.00,40.00,14,-2,25,0.00
2012-5-29,81.0,65.0,49.0,41.0,27.4,-99.9,48,27,12,0.00,40.00,9,-12,17,0.00
2012-5-30,87.0,68.8,53.0,38.0,29.8,18.0,47,26,8,0.00,40.00,15,5,24,0.00
2012-5-31,79.0,64.2,51.0,40.0,35.6,-99.9,66,37,21,0.00,40.00,14,-4,14,0.00
2012-6-1,82.0,71.0,56.0,42.0,38.9,35.0,56,33,20,0.00,40.00,10,3,17,0.00
2012-6-2,82.0,67.2,55.0,47.0,40.2,-99.9,65,41,25,0.00,40.00,26,-4,40,0.00
2012-6-3,95.0,74.0,57.0,44.0,39.4,32.0,64,33,12,0.00,40.00,17,3,24,0.00
2012-6-4,92.0,76.7,61.0,46.0,38.6,-99.9,56,29,11,0.00,40.00,25,1,43,0.00
2012-6-5,86.0,76.1,65.0,46.0,42.5,38.0,51,32,21,0.00,40.00,26,12,35,0.00
2012-6-6,87.0,72.5,64.0,54.0,44.8,-99.9,68,40,23,0.00,40.00,90,-2,90,0.00
2012-6-7,85.0,70.4,58.0,58.0,53.6,49.0,83,59,33,0.00,40.00,15,4,28,0.00
2012-6-8,94.0,78.5,62.0,53.0,42.6,28.0,73,36,11,0.00,40.00,77,7,77,0.00
2012-6-9,102.0,82.7,63.0,43.0,28.5,-99.9,38,17,6,0.00,40.00,10,2,15,0.00
2012-6-10,80.0,67.9,56.0,41.0,28.8,12.0,42,25,9,0.00,40.00,12,6,18,0.00
2012-6-11,80.0,67.9,54.0,34.0,25.4,12.0,38,20,11,0.00,40.00,11,5,19,0.00
2012-6-12,89.0,72.7,55.0,36.0,27.4,17.0,47,22,7,0.00,40.00,13,2,21,0.00
2012-6-13,95.0,77.4,57.0,37.0,26.1,16.0,36,17,6,0.00,40.00,15,3,20,0.00
2012-6-14,89.0,75.8,63.0,46.0,35.2,24.0,38,23,15,0.00,40.00,9,3,17,0.00
2012-6-15,82.0,73.7,65.0,52.0,43.5,27.0,53,36,13,0.00,40.00,17,7,24,0.00
2012-6-16,83.0,70.3,62.0,49.0,42.2,-99.9,55,39,18,0.00,40.00,21,4,21,0.00
2012-6-17,99.0,82.0,63.0,42.0,32.4,16.0,47,21,5,0.00,40.00,9,4,19,0.00
2012-6-18,104.0,87.0,69.0,35.0,27.7,21.0,25,13,6,0.00,40.00,9,3,14,0.00
2012-6-19,97.0,84.9,70.0,41.0,30.6,21.0,26,15,7,0.00,40.00,10,4,18,0.00
2012-6-20,80.0,68.9,58.0,50.0,41.1,19.0,73,40,12,0.00,40.00,11,3,19,0.00
2012-6-21,87.0,75.5,64.0,45.0,39.7,31.0,40,28,21,0.00,40.00,17,5,17,0.00
2012-6-22,105.0,78.5,63.0,47.0,36.7,22.0,52,24,6,0.00,40.00,14,4,21,0.00
2012-6-23,107.0,87.7,67.0,37.0,30.0,19.0,31,15,5,0.00,40.00,12,3,17,0.00
2012-6-24,102.0,87.3,69.0,44.0,35.0,26.0,41,17,7,0.00,40.00,77,4,77,0.00
2012-6-25,103.0,88.7,71.0,47.0,35.3,19.0,37,18,6,0.00,40.00,16,6,31,0.00
2012-6-26,104.0,86.8,72.0,44.0,35.6,29.0,29,17,9,0.00,40.00,81,5,81,0.00
2012-6-27,99.0,80.8,72.0,52.0,44.5,37.0,51,30,13,0.00,40.00,26,4,31,0.00
2012-6-28,97.0,78.2,65.0,54.0,45.9,34.0,64,37,12,0.00,40.00,18,3,29,0.00
2012-6-29,98.0,82.3,67.0,48.0,40.7,32.0,47,26,11,0.00,40.00,14,3,25,0.00
2012-6-30,97.0,86.0,69.0,43.0,37.1,31.0,37,19,10,0.00,40.00,11,3,17,0.00
2012-7-1,100.0,85.2,66.0,47.0,38.3,29.0,47,22,9,0.00,40.00,25,5,35,0.00
2012-7-2,102.0,83.6,70.0,55.0,44.9,35.0,47,28,11,0.00,40.00,14,5,25,0.00
2012-7-3,96.0,79.9,72.0,51.0,46.1,39.0,46,33,14,0.00,40.00,20,5,29,0.00
2012-7-4,99.0,83.2,67.0,50.0,43.2,35.0,54,29,11,0.00,40.00,8,2,15,0.00
2012-7-5,97.0,83.2,71.0,58.0,50.7,35.0,62,36,12,0.00,40.00,15,3,27,0.00
2012-7-6,88.0,75.5,63.0,62.0,53.0,47.0,87,50,26,0.00,40.00,13,3,17,0.00
2012-7-7,83.0,68.3,62.0,62.0,57.8,38.0,90,73,36,0.00,40.00,23,3,33,0.00
2012-7-8,79.0,67.6,61.0,61.0,58.1,54.0,92,75,45,0.00,40.00,5,1,12,0.00
2012-7-9,87.0,71.1,62.0,62.0,56.7,50.0,92,66,32,0.00,40.00,11,3,15,0.00
2012-7-10,90.0,76.4,62.0,58.0,50.9,40.0,80,46,19,0.00,40.00,8,3,14,0.00
2012-7-11,92.0,78.6,62.0,54.0,48.8,41.0,67,39,21,0.00,40.00,5,2,10,0.00
2012-7-12,96.0,81.4,67.0,51.0,44.2,37.0,51,30,13,0.00,40.00,5,2,12,0.00
2012-7-13,99.0,83.4,67.0,49.0,41.5,31.0,49,26,9,0.00,40.00,13,3,18,0.00
2012-7-14,95.0,82.9,68.0,47.0,41.4,34.0,40,25,12,0.00,40.00,12,4,21,0.00
2012-7-15,101.0,82.4,70.0,50.0,45.1,35.0,48,29,12,0.00,40.00,10,2,18,0.00
2012-7-16,94.0,76.4,65.0,59.0,48.7,41.0,83,42,17,0.00,40.00,17,4,28,0.00
2012-7-17,94.0,78.3,64.0,54.0,47.7,42.0,72,38,18,0.00,40.00,20,3,26,0.00
2012-7-18,99.0,80.6,65.0,49.0,43.4,34.0,54,30,11,0.00,40.00,20,4,26,0.00
2012-7-19,101.0,84.3,67.0,50.0,44.0,36.0,52,28,12,0.00,40.00,9,2,14,0.00
2012-7-20,100.0,85.3,69.0,50.0,42.5,35.0,47,26,11,0.00,40.00,12,3,17,0.00
2012-7-21,102.0,85.2,68.0,49.0,42.9,35.0,50,25,11,0.00,40.00,8,2,15,0.00
2012-7-22,99.0,83.6,72.0,54.0,47.4,43.0,48,30,15,0.00,40.00,5,2,24,0.00
2012-7-23,101.0,82.6,68.0,55.0,47.2,40.0,58,33,13,0.00,40.00,124,4,124,0.00
2012-7-24,98.0,82.5,67.0,52.0,46.3,41.0,54,31,14,0.00,40.00,12,2,20,0.00
2012-7-25,91.0,77.6,68.0,74.0,50.7,45.0,61,41,22,0.00,40.00,12,4,17,0.00
2012-7-26,95.0,79.1,65.0,54.0,47.5,38.0,67,38,15,0.00,40.00,3,2,11,0.00
2012-7-27,93.0,77.0,67.0,57.0,47.9,38.0,65,39,16,0.00,40.00,86,5,86,0.00
2012-7-28,93.0,77.3,67.0,55.0,48.8,41.0,63,40,17,0.00,40.00,23,5,32,0.00
2012-7-29,97.0,78.6,68.0,56.0,50.7,43.0,62,42,16,0.00,40.00,7,3,14,0.00
2012-7-30,90.0,76.5,67.0,59.0,54.1,45.0,69,49,23,0.00,40.00,6,3,15,0.00
2012-7-31,95.0,79.3,69.0,63.0,52.8,45.0,73,44,19,0.00,40.00,15,6,24,0.00
2012-8-1,93.0,79.2,67.0,58.0,48.9,40.0,73,38,17,0.00,40.00,12,4,17,0.00
2012-8-2,92.0,77.0,65.0,56.0,46.9,37.0,71,39,15,0.00,40.00,33,3,33,0.00
2012-8-3,102.0,81.6,65.0,50.0,39.0,27.0,49,26,8,0.00,40.00,65,5,65,0.00
2012-8-4,87.0,72.3,60.0,50.0,43.1,39.0,58,38,20,0.00,40.00,12,4,21,0.00
2012-8-5,97.0,78.7,60.0,49.0,43.0,33.0,67,33,11,0.00,40.00,12,3,19,0.00
2012-8-6,98.0,83.7,73.0,47.0,42.1,31.0,38,25,10,0.00,40.00,8,3,15,0.00
2012-8-7,97.0,84.0,70.0,49.0,42.6,36.0,46,25,14,0.00,40.00,9,3,13,0.00
2012-8-8,97.0,81.9,64.0,49.0,38.0,29.0,57,25,9,0.00,40.00,4,1,11,0.00
2012-8-9,94.0,80.0,65.0,47.0,40.7,37.0,44,26,15,0.00,40.00,3,1,10,0.00
2012-8-10,97.0,80.4,66.0,48.0,43.8,38.0,50,30,13,0.00,40.00,10,2,15,0.00
2012-8-11,93.0,79.0,65.0,57.0,44.8,-99.9,77,34,16,0.00,40.00,12,4,20,0.00
2012-8-12,88.0,74.9,60.0,57.0,42.0,34.0,77,37,14,0.00,40.00,8,2,12,0.00
2012-8-13,79.0,71.8,65.0,48.0,43.2,38.0,52,37,24,0.00,40.00,16,4,23,0.00
2012-8-14,98.0,78.0,59.0,49.0,40.1,30.0,69,33,9,0.00,40.00,6,2,11,0.00
2012-8-15,97.0,77.1,65.0,47.0,38.5,30.0,50,27,10,0.00,40.00,11,3,20,0.00
2012-8-16,81.0,67.6,57.0,48.0,45.8,45.0,68,48,30,0.00,40.00,22,3,22,0.00
2012-8-17,90.0,70.2,54.0,50.0,44.9,41.0,76,45,19,0.00,40.00,2,1,8,0.00
2012-8-18,84.0,73.4,62.0,50.0,39.0,31.0,58,32,17,0.00,40.00,5,2,11,0.00
2012-8-19,87.0,71.7,56.0,37.0,33.5,29.0,46,26,13,0.00,40.00,3,1,9,0.00
2012-8-20,87.0,71.9,60.0,43.0,37.4,33.0,46,30,16,0.00,40.00,6,1,11,0.00
2012-8-21,94.0,76.4,59.0,45.0,38.7,28.0,60,30,12,0.00,40.00,5,3,13,0.00
2012-8-22,96.0,76.6,67.0,53.0,42.8,37.0,57,32,15,0.00,40.00,15,3,26,0.00
2012-8-23,87.0,72.4,64.0,57.0,52.6,45.0,78,54,26,0.00,40.00,11,4,18,0.00
2012-8-24,88.0,74.5,63.0,54.0,46.7,38.0,70,41,19,0.00,40.00,13,3,21,0.00
2012-8-25,85.0,72.3,62.0,45.0,40.1,33.0,55,33,20,0.00,40.00,7,2,14,0.00
2012-8-26,97.0,79.2,59.0,48.0,37.2,26.0,65,28,9,0.00,40.00,7,1,12,0.00
2012-8-27,98.0,79.4,65.0,45.0,40.4,35.0,49,27,12,0.00,40.00,17,4,23,0.00
2012-8-28,99.0,80.4,65.0,49.0,43.4,39.0,49,30,13,0.00,40.00,8,2,14,0.00
2012-8-29,98.0,82.1,69.0,49.0,42.8,36.0,44,27,13,0.00,40.00,10,3,18,0.00
2012-8-30,95.0,80.9,70.0,45.0,41.7,37.0,37,26,13,0.00,40.00,12,3,21,0.00
2012-8-31,94.0,78.4,62.0,63.0,36.9,28.0,56,28,10,0.00,40.00,15,6,23,0.00
2012-9-1,96.0,79.0,65.0,50.0,38.5,29.0,39,24,12,0.00,40.00,13,4,22,0.00
2012-9-2,92.0,77.6,67.0,52.0,44.7,34.0,51,34,14,0.00,40.00,8,3,16,0.00
2012-9-3,93.0,76.4,65.0,51.0,42.1,29.0,59,34,11,0.00,40.00,7,2,14,0.00
2012-9-4,98.0,78.1,62.0,43.0,33.0,23.0,48,23,9,0.00,40.00,11,2,23,0.00
2012-9-5,88.0,73.5,57.0,33.0,27.6,22.0,34,18,9,0.00,40.00,86,5,86,0.00
2012-9-6,92.0,77.0,58.0,33.0,27.5,21.0,35,17,8,0.00,40.00,7,3,13,0.00
2012-9-7,77.0,65.3,57.0,45.0,40.1,31.0,62,42,20,0.00,40.00,10,3,20,0.00
2012-9-8,83.0,67.0,51.0,45.0,37.4,25.0,74,40,12,0.00,40.00,3,1,11,0.00
2012-9-9,91.0,72.1,51.0,37.0,29.4,22.0,60,23,8,0.00,40.00,28,4,28,0.00
2012-9-10,97.0,79.1,62.0,33.0,29.5,25.0,31,17,9,0.00,40.00,7,3,11,0.00
2012-9-11,89.0,74.6,64.0,55.0,40.1,32.0,74,33,14,0.00,40.00,9,2,17,0.00
2012-9-12,64.0,55.9,51.0,57.0,49.6,46.0,90,81,63,0.00,40.00,9,2,12,0.00
2012-9-13,74.0,61.7,53.0,49.0,41.5,27.0,86,54,17,0.00,40.00,2,1,9,0.00
2012-9-14,80.0,65.0,51.0,42.0,33.1,21.0,67,36,11,0.00,40.00,6,2,12,0.00
2012-9-15,90.0,69.7,51.0,40.0,30.5,20.0,66,30,8,0.00,40.00,3,1,10,0.00
2012-9-16,89.0,72.6,56.0,37.0,28.2,20.0,48,23,8,0.00,40.00,15,2,20,0.00
2012-9-17,70.0,60.9,54.0,42.0,37.7,29.0,62,44,21,0.00,40.00,10,2,18,0.00
2012-9-18,83.0,64.6,48.0,44.0,35.2,27.0,74,41,14,0.00,40.00,4,1,11,0.00
2012-9-19,86.0,68.9,54.0,38.0,31.7,26.0,51,28,12,0.00,40.00,8,2,13,0.00
2012-9-20,86.0,69.2,52.0,37.0,31.9,26.0,57,29,12,0.00,40.00,5,1,11,0.00
2012-9-21,83.0,67.4,52.0,39.0,33.0,27.0,61,31,13,0.00,40.00,2,1,10,0.00
2012-9-22,83.0,65.7,50.0,41.0,35.5,-99.9,67,37,18,0.00,40.00,2,1,10,0.00
2012-9-23,92.0,71.5,51.0,44.0,33.3,23.0,68,31,8,0.00,40.00,5,1,15,0.00
2012-9-24,83.0,70.0,62.0,43.0,38.1,31.0,51,33,15,0.00,40.00,8,2,12,0.00
2012-9-25,73.0,60.1,54.0,52.0,44.3,39.0,91,59,34,0.00,40.00,15,2,22,0.00
2012-9-26,69.0,58.4,52.0,53.0,48.1,43.0,91,72,41,0.00,40.00,5,2,15,0.00
2012-9-27,71.0,57.8,49.0,50.0,46.8,44.0,91,70,42,0.00,40.00,2,2,11,0.00
2012-9-28,76.0,61.5,47.0,47.0,41.2,35.0,84,53,24,0.00,40.00,3,1,12,0.00
2012-9-29,81.0,65.1,49.0,46.0,37.7,29.0,82,43,14,0.00,40.00,5,2,13,0.00
2012-9-30,80.0,66.1,55.0,45.0,38.2,33.0,70,39,19,0.00,40.00,14,3,22,0.00
2012-10-1,72.0,62.6,53.0,46.0,38.5,33.0,75,44,25,0.00,40.00,6,2,14,0.00
2012-10-2,88.0,67.2,50.0,39.0,31.6,21.0,66,33,10,0.00,40.00,7,3,10,0.00
2012-10-3,88.0,64.9,42.0,42.0,29.0,20.0,57,30,8,0.00,40.00,32,5,32,0.00
2012-10-4,52.0,43.0,38.0,27.0,24.5,22.0,58,49,34,0.00,40.00,8,3,12,0.00
2012-10-5,45.0,37.9,32.0,33.0,28.9,24.0,92,72,55,0.00,40.00,6,2,10,0.00
2012-10-6,38.0,32.8,34.0,33.0,27.5,-6.0,92,79,65,0.00,40.00,7,2,12,0.00
2012-10-7,59.0,43.8,30.0,29.0,20.1,10.0,87,45,14,0.00,40.00,5,2,11,0.00
2012-10-8,77.0,54.9,33.0,26.0,17.8,10.0,71,31,7,0.00,40.00,8,2,10,0.00
2012-10-9,59.0,48.5,40.0,34.0,28.7,10.0,68,50,13,0.00,40.00,12,3,18,0.00
2012-10-10,65.0,49.7,38.0,41.0,34.5,31.0,85,59,32,0.00,40.00,3,2,8,0.00
2012-10-11,67.0,54.9,43.0,41.0,33.9,30.0,77,48,26,0.00,40.00,7,2,13,0.00
2012-10-12,72.0,50.9,37.0,44.0,35.5,30.0,77,58,32,0.00,40.00,16,2,24,0.00
2012-10-13,62.0,52.3,43.0,44.0,35.3,25.0,81,55,33,0.00,40.00,10,3,15,0.00
2012-10-14,73.0,57.3,44.0,64.0,45.6,28.0,80,68,29,0.00,40.00,7,2,14,0.00
2012-10-15,82.0,62.9,45.0,33.0,26.1,18.0,57,29,10,0.00,40.00,6,2,13,0.00
2012-10-16,83.0,66.0,49.0,37.0,27.0,19.0,43,24,11,0.00,40.00,25,6,40,0.00
2012-10-17,60.0,53.7,48.0,32.0,11.5,5.0,54,18,10,0.00,40.00,25,8,45,0.00
2012-10-18,67.0,51.4,35.0,20.0,14.9,8.0,44,24,11,0.00,40.00,11,4,22,0.00
2012-10-19,73.0,55.5,37.0,27.0,22.0,14.0,56,29,12,0.00,40.00,7,2,13,0.00
2012-10-20,80.0,62.0,50.0,28.0,23.2,16.0,39,23,8,0.00,40.00,9,2,12,0.00
2012-10-21,75.0,59.3,47.0,37.0,26.4,18.0,57,30,11,0.00,40.00,8,2,13,0.00
2012-10-22,71.0,54.8,41.0,38.0,35.0,31.0,79,50,28,0.00,40.00,7,2,13,0.00
2012-10-23,81.0,61.5,43.0,38.0,24.4,8.0,71,32,6,0.00,40.00,13,3,22,0.00
2012-10-24,56.0,45.8,31.0,40.0,32.1,27.0,95,62,42,0.00,40.00,9,3,103,0.00
2012-10-25,37.0,32.3,29.0,30.0,27.4,23.0,95,84,63,0.00,40.00,11,6,12,0.00
2012-10-26,47.0,33.7,28.0,29.0,23.6,17.0,92,70,34,0.00,40.00,4,2,11,0.00
2012-10-27,56.0,39.3,27.0,38.0,22.1,17.0,89,55,22,0.00,40.00,5,1,10,0.00
2012-10-28,65.0,46.6,31.0,32.0,26.5,24.0,79,50,22,0.00,40.00,8,2,34,0.00
2012-10-29,74.0,54.4,40.0,33.0,29.8,28.0,69,43,18,0.00,40.00,6,1,10,0.00
2012-10-30,74.0,55.5,41.0,31.0,27.5,19.0,67,39,14,0.00,40.00,6,3,14,0.00
2012-10-31,75.0,57.2,43.0,32.0,26.6,21.0,59,34,13,0.00,40.00,6,2,11,0.00
2012-11-1,75.0,54.6,41.0,36.0,27.8,19.0,61,39,12,0.00,40.00,3,1,8,0.00
2012-11-2,60.0,52.0,44.0,31.0,27.0,22.0,59,39,27,0.00,40.00,6,1,10,0.00
2012-11-3,66.0,47.1,34.0,32.0,29.0,25.0,77,53,24,0.00,40.00,5,1,9,0.00
2012-11-4,67.0,49.9,38.0,32.0,25.5,20.0,69,42,16,0.00,40.00,9,2,14,0.00
2012-11-5,72.0,52.7,36.0,30.0,27.2,24.0,71,42,18,0.00,40.00,9,3,16,0.00
2012-11-6,72.0,54.5,42.0,34.0,28.5,25.0,55,39,20,0.00,40.00,4,1,10,0.00
2012-11-7,81.0,57.3,41.0,29.0,22.6,14.0,57,31,8,0.00,40.00,6,1,10,0.00
2012-11-8,65.0,50.6,41.0,32.0,24.6,17.0,67,37,19,0.00,40.00,5,2,10,0.00
2012-11-9,65.0,49.0,35.0,36.0,31.1,26.0,76,53,30,0.00,40.00,12,1,16,0.00
2012-11-10,57.0,40.0,22.0,33.0,26.7,17.0,94,67,22,0.00,40.00,24,7,31,0.00
2012-11-11,37.0,27.7,20.0,19.0,7.5,-2.0,86,46,18,0.00,40.00,18,4,24,0.00
2012-11-12,50.0,35.5,20.0,25.0,12.8,-2.0,70,41,13,0.00,40.00,6,2,12,0.00
2012-11-13,58.0,42.1,31.0,25.0,20.3,16.0,73,46,17,0.00,40.00,5,2,82,0.00
2012-12-6,-200.0,0.0,200.0,-99.9,-99.9,-99.9,0,0,100,0.00,40.00,2,2,11,0.00
2012-12-8,44.0,31.5,27.0,24.0,20.4,15.0,90,67,29,0.00,40.00,12,7,18,0.00
2012-12-9,27.0,21.5,12.0,20.0,5.7,-2.0,85,52,30,0.00,40.00,10,6,15,0.00
2012-12-10,42.0,28.6,12.0,23.0,3.1,-2.0,88,34,16,0.00,40.00,13,5,20,0.00
2012-12-11,48.0,31.4,20.0,43.0,14.5,8.0,90,54,18,0.00,40.00,11,4,13,0.00
2012-12-12,62.0,43.0,28.0,15.0,12.7,9.0,56,30,12,0.00,40.00,15,4,20,0.00
2012-12-13,59.0,41.1,30.0,19.0,13.7,10.0,51,33,12,0.00,40.00,149,19,149,0.00
2012-12-14,47.0,37.4,32.0,19.0,14.4,10.0,52,39,26,0.00,40.00,8,2,10,0.00
2012-12-15,50.0,37.2,31.0,28.0,20.8,16.0,85,54,29,0.00,40.00,10,3,14,0.00
2012-12-16,49.0,34.3,24.0,29.0,15.8,4.0,94,54,18,0.00,40.00,15,4,24,0.00
2012-12-17,54.0,40.7,29.0,18.0,12.6,6.0,43,31,22,0.00,40.00,17,6,29,0.00
2012-12-18,49.0,37.6,26.0,29.0,21.8,10.0,81,56,32,0.00,40.00,8,3,14,0.00
2012-12-19,27.0,22.5,17.0,20.0,11.7,-6.0,88,66,26,0.00,40.00,10,3,17,0.00
2012-12-20,50.0,30.3,12.0,14.0,4.1,-4.0,62,35,12,0.00,40.00,124,5,124,0.00
2012-12-21,56.0,37.6,25.0,17.0,9.9,6.0,51,32,14,0.00,40.00,7,3,11,0.00
2012-12-22,54.0,37.5,27.0,15.0,7.8,3.0,54,30,11,0.00,40.00,4,2,10,0.00
2012-12-23,56.0,39.6,27.0,18.0,9.8,1.0,52,29,14,0.00,40.00,150,11,150,0.00
2012-12-24,42.0,30.1,20.0,23.0,16.1,13.0,88,58,32,0.00,40.00,6,2,11,0.00
2012-12-25,24.0,14.8,7.0,16.0,6.1,2.0,86,71,44,0.00,40.00,6,2,11,0.00
2012-12-26,32.0,16.6,7.0,14.0,7.9,2.0,84,71,44,0.00,40.00,5,2,9,0.00
2012-12-27,34.0,20.1,12.0,16.0,11.1,6.0,84,70,45,0.00,40.00,8,2,11,0.00
2012-12-28,39.0,24.2,13.0,15.0,5.8,-1.0,86,50,20,0.00,40.00,14,3,22,0.00
2012-12-29,40.0,23.4,15.0,9.0,2.3,-4.0,62,40,17,0.00,40.00,6,2,9,0.00
2012-12-30,45.0,25.5,12.0,15.0,9.2,5.0,75,54,17,0.00,40.00,5,2,11,0.00
2012-12-31,29.0,22.6,19.0,15.0,12.6,9.0,81,67,52,0.00,40.00,3,1,9,0.00
2013-1-1,37.0,22.2,12.0,13.0,6.1,-1.0,83,53,25,0.00,40.00,5,2,9,0.00